Time;durP1;ratioP1;P1;durP2;ratioP2;P2;SDS_P1;SDS_P2;PMS_P1;PMS_P2;Temp;Humidity;BMP_temperature;BMP_pressure;BME280_temperature;BME280_humidity;BME280_pressure;Samples;Min_cycle;Max_cycle;Signal;HPM_P1;HPM_P2
2023/11/03 00:00:47;;;;;;;0.90;0.90;;;6.60;99.90;;;;;;5088606;28;20207;-71
2023/11/03 00:03:15;;;;;;;0.70;0.70;;;6.60;99.90;;;;;;5087949;28;20195;-71
2023/11/03 00:05:43;;;;;;;2.37;1.30;;;6.60;99.90;;;;;;5097353;28;20285;-70
2023/11/03 00:08:10;;;;;;;1.00;0.90;;;6.50;99.90;;;;;;5094774;28;20712;-70
2023/11/03 00:10:37;;;;;;;0.90;0.88;;;6.50;99.90;;;;;;5095872;28;20198;-69
2023/11/03 00:13:04;;;;;;;1.92;1.25;;;6.40;99.90;;;;;;5091885;28;20294;-70
2023/11/03 00:15:33;;;;;;;1.45;1.35;;;6.40;99.90;;;;;;5094824;28;20214;-70
2023/11/03 00:18:00;;;;;;;1.92;0.70;;;6.30;99.90;;;;;;5091793;28;20194;-70
2023/11/03 00:20:26;;;;;;;0.80;0.77;;;6.30;99.90;;;;;;5092677;28;20198;-70
2023/11/03 00:22:54;;;;;;;0.95;0.80;;;6.30;99.90;;;;;;5088504;28;20191;-70
2023/11/03 00:25:22;;;;;;;1.10;1.00;;;6.30;99.90;;;;;;5098830;28;20205;-70
2023/11/03 00:27:50;;;;;;;1.05;0.95;;;6.30;99.90;;;;;;5081492;28;20187;-70
2023/11/03 00:30:18;;;;;;;0.75;0.60;;;6.40;99.90;;;;;;5091912;28;20264;-70
2023/11/03 00:32:44;;;;;;;0.60;0.55;;;6.30;99.90;;;;;;5088123;28;20582;-70
2023/11/03 00:35:11;;;;;;;0.93;0.90;;;6.10;99.90;;;;;;5094101;28;20548;-70
2023/11/03 00:37:40;;;;;;;1.08;0.90;;;6.10;99.90;;;;;;5087334;28;20240;-71
2023/11/03 00:40:11;;;;;;;1.15;1.00;;;6.00;99.90;;;;;;5095854;28;20199;-71
2023/11/03 00:42:39;;;;;;;0.90;0.90;;;5.90;99.90;;;;;;5096078;28;20195;-70
2023/11/03 00:45:07;;;;;;;1.08;0.95;;;5.90;99.90;;;;;;5097832;28;20223;-70
2023/11/03 00:47:33;;;;;;;1.05;0.70;;;5.80;99.90;;;;;;5087962;28;20661;-71
2023/11/03 00:50:00;;;;;;;0.60;0.45;;;5.90;99.90;;;;;;5093247;28;20245;-71
2023/11/03 00:52:27;;;;;;;1.30;0.90;;;6.00;99.90;;;;;;5087526;28;20210;-71
2023/11/03 00:54:54;;;;;;;1.15;0.60;;;5.80;99.90;;;;;;5087391;28;20195;-71
2023/11/03 00:57:23;;;;;;;1.15;1.05;;;5.80;99.90;;;;;;5089861;28;20198;-71
2023/11/03 00:59:50;;;;;;;0.90;0.43;;;5.80;99.90;;;;;;5091367;28;20191;-71
2023/11/03 01:02:17;;;;;;;0.40;0.40;;;5.70;99.90;;;;;;5088547;28;20589;-71
2023/11/03 01:04:44;;;;;;;0.60;0.55;;;5.60;99.90;;;;;;5089981;28;20191;-71
2023/11/03 01:07:10;;;;;;;3.53;0.50;;;5.60;99.90;;;;;;5090714;28;20534;-71
2023/11/03 01:09:38;;;;;;;0.60;0.50;;;5.50;99.90;;;;;;5091872;28;20227;-71
2023/11/03 01:12:06;;;;;;;0.43;0.43;;;5.50;99.90;;;;;;5091451;28;20210;-71
2023/11/03 01:14:35;;;;;;;0.80;0.73;;;5.50;99.90;;;;;;5084235;28;20298;-70
2023/11/03 01:17:02;;;;;;;1.05;0.85;;;5.50;99.90;;;;;;5086536;28;20282;-71
2023/11/03 01:19:30;;;;;;;0.40;0.35;;;5.40;99.90;;;;;;5086841;28;20187;-70
2023/11/03 01:21:58;;;;;;;0.90;0.90;;;5.40;99.90;;;;;;5091897;28;20464;-71
2023/11/03 01:24:25;;;;;;;0.77;0.77;;;5.40;99.90;;;;;;5086602;28;20590;-71
2023/11/03 01:26:52;;;;;;;1.05;0.68;;;5.50;99.90;;;;;;5094918;28;20957;-71
2023/11/03 01:29:20;;;;;;;0.73;0.73;;;5.60;99.90;;;;;;5088914;28;20719;-70
2023/11/03 01:31:48;;;;;;;1.52;0.88;;;5.70;99.90;;;;;;5090628;28;20199;-71
2023/11/03 01:34:15;;;;;;;0.82;0.82;;;5.70;99.90;;;;;;5086914;28;20195;-71
2023/11/03 01:36:42;;;;;;;0.70;0.70;;;5.70;99.90;;;;;;5093078;28;20274;-71
2023/11/03 01:39:10;;;;;;;1.05;0.75;;;5.70;99.90;;;;;;5079342;28;20306;-71
2023/11/03 01:41:37;;;;;;;1.05;0.95;;;5.70;99.90;;;;;;5087844;28;20202;-71
2023/11/03 01:44:06;;;;;;;0.80;0.60;;;5.70;99.90;;;;;;5086722;28;20205;-71
2023/11/03 01:46:35;;;;;;;0.60;0.40;;;5.80;99.90;;;;;;5095820;28;20191;-71
2023/11/03 01:49:03;;;;;;;2.95;1.40;;;5.80;99.90;;;;;;5086475;28;20628;-71
2023/11/03 01:51:31;;;;;;;1.50;0.77;;;5.80;99.90;;;;;;5089193;28;20210;-71
2023/11/03 01:53:58;;;;;;;1.25;0.50;;;5.80;99.90;;;;;;5088065;28;20203;-71
2023/11/03 01:56:25;;;;;;;0.50;0.40;;;5.80;99.90;;;;;;5090984;28;20195;-71
2023/11/03 01:58:52;;;;;;;1.15;0.65;;;5.70;99.90;;;;;;5089247;28;20223;-71
2023/11/03 02:01:20;;;;;;;0.70;0.70;;;5.80;99.90;;;;;;5078299;28;20197;-70
2023/11/03 02:03:49;;;;;;;0.80;0.80;;;5.70;99.90;;;;;;5085422;28;20669;-70
2023/11/03 02:06:18;;;;;;;0.85;0.68;;;5.70;99.90;;;;;;5086110;28;20566;-70
2023/11/03 02:08:45;;;;;;;0.70;0.40;;;5.60;99.90;;;;;;5086166;28;20644;-70
2023/11/03 02:11:13;;;;;;;1.38;0.75;;;5.60;99.90;;;;;;5093113;28;20195;-70
2023/11/03 02:13:40;;;;;;;0.70;0.70;;;5.50;99.90;;;;;;5086145;28;20209;-70
2023/11/03 02:16:10;;;;;;;0.77;0.77;;;5.60;99.90;;;;;;5086267;28;20279;-70
2023/11/03 02:18:37;;;;;;;2.75;2.38;;;5.70;99.90;;;;;;5085164;28;20729;-70
2023/11/03 02:21:05;;;;;;;0.40;0.40;;;5.90;99.90;;;;;;5093947;28;20205;-70
2023/11/03 02:23:35;;;;;;;0.50;0.50;;;5.90;99.90;;;;;;5088196;28;20195;-70
2023/11/03 02:26:04;;;;;;;1.58;0.75;;;6.00;99.90;;;;;;5087772;28;20206;-70
2023/11/03 02:28:32;;;;;;;4.90;0.95;;;6.00;99.90;;;;;;5090051;28;20263;-70
2023/11/03 02:31:00;;;;;;;1.35;1.25;;;5.90;99.90;;;;;;5093808;28;20191;-70
2023/11/03 02:33:28;;;;;;;3.05;0.88;;;5.90;99.90;;;;;;5092808;28;21023;-69
2023/11/03 02:35:55;;;;;;;0.45;0.45;;;5.80;99.90;;;;;;5084149;28;20195;-69
2023/11/03 02:38:23;;;;;;;0.50;0.50;;;5.70;99.90;;;;;;5085499;28;20199;-69
2023/11/03 02:40:54;;;;;;;1.20;0.63;;;5.70;99.90;;;;;;5085851;28;20199;-69
2023/11/03 02:43:22;;;;;;;0.70;0.60;;;5.70;99.90;;;;;;5089401;28;20198;-69
2023/11/03 02:45:50;;;;;;;1.05;1.00;;;5.80;99.90;;;;;;5092807;28;20290;-70
2023/11/03 02:48:18;;;;;;;0.75;0.75;;;5.80;99.90;;;;;;5085326;28;20800;-70
2023/11/03 02:50:45;;;;;;;1.73;1.10;;;5.70;99.90;;;;;;5088159;28;20313;-69
2023/11/03 02:53:13;;;;;;;0.70;0.70;;;5.70;99.90;;;;;;5090341;28;20198;-70
2023/11/03 02:55:40;;;;;;;0.60;0.60;;;5.60;99.90;;;;;;5090600;28;20223;-70
2023/11/03 02:58:08;;;;;;;7.20;1.20;;;5.60;99.90;;;;;;5084888;28;20547;-70
2023/11/03 03:00:35;;;;;;;0.88;0.50;;;5.60;99.90;;;;;;5089187;28;21332;-70
2023/11/03 03:03:05;;;;;;;0.70;0.70;;;5.70;99.90;;;;;;5090682;28;20194;-69
2023/11/03 03:05:32;;;;;;;0.73;0.50;;;5.60;99.90;;;;;;5087886;28;20183;-70
2023/11/03 03:07:59;;;;;;;0.60;0.57;;;5.60;99.90;;;;;;5085120;28;20192;-70
2023/11/03 03:10:25;;;;;;;2.28;0.80;;;5.60;99.90;;;;;;5088701;28;20392;-69
2023/11/03 03:12:53;;;;;;;0.70;0.45;;;5.70;99.90;;;;;;5088832;28;20565;-69
2023/11/03 03:15:22;;;;;;;0.73;0.50;;;5.60;99.90;;;;;;5089545;28;20213;-70
2023/11/03 03:17:49;;;;;;;1.98;0.75;;;5.60;99.90;;;;;;5098485;28;20568;-70
2023/11/03 03:20:17;;;;;;;0.43;0.40;;;5.50;99.90;;;;;;5093655;28;20201;-70
2023/11/03 03:22:44;;;;;;;0.95;0.65;;;5.50;99.90;;;;;;5089351;28;20202;-70
2023/11/03 03:25:13;;;;;;;1.55;0.75;;;5.50;99.90;;;;;;5092274;28;20200;-70
2023/11/03 03:27:41;;;;;;;2.53;0.75;;;5.60;99.90;;;;;;5088909;28;20203;-70
2023/11/03 03:30:10;;;;;;;0.70;0.40;;;5.40;99.90;;;;;;5090312;28;20218;-70
2023/11/03 03:32:40;;;;;;;1.25;0.80;;;5.50;99.90;;;;;;5089477;28;20202;-70
2023/11/03 03:35:09;;;;;;;0.73;0.50;;;5.50;99.90;;;;;;5089138;28;20599;-70
2023/11/03 03:37:36;;;;;;;0.70;0.70;;;5.40;99.90;;;;;;5092763;28;20294;-70
2023/11/03 03:40:05;;;;;;;1.90;0.60;;;5.50;99.90;;;;;;5088918;28;20226;-70
2023/11/03 03:42:34;;;;;;;0.50;0.40;;;5.50;99.90;;;;;;5096196;28;20325;-70
2023/11/03 03:45:01;;;;;;;1.30;0.75;;;5.60;99.90;;;;;;5085322;28;20203;-70
2023/11/03 03:47:30;;;;;;;0.52;0.52;;;5.50;99.90;;;;;;5093147;28;20256;-69
2023/11/03 03:50:02;;;;;;;4.07;0.95;;;5.50;99.90;;;;;;5088683;28;20259;-70
2023/11/03 03:52:30;;;;;;;1.27;0.95;;;5.50;99.90;;;;;;5095545;28;20678;-69
2023/11/03 03:54:57;;;;;;;1.13;0.70;;;5.50;99.90;;;;;;5100381;28;20687;-69
2023/11/03 03:57:24;;;;;;;2.17;0.65;;;5.40;99.90;;;;;;5086748;28;20206;-70
2023/11/03 03:59:51;;;;;;;0.80;0.80;;;5.40;99.90;;;;;;5087574;28;20191;-70
2023/11/03 04:02:18;;;;;;;0.60;0.50;;;5.40;99.90;;;;;;5086495;28;20191;-70
2023/11/03 04:04:45;;;;;;;0.52;0.52;;;5.40;99.90;;;;;;5087441;28;20634;-70
2023/11/03 04:07:13;;;;;;;2.70;0.85;;;5.60;99.90;;;;;;5086952;28;20308;-70
2023/11/03 04:09:41;;;;;;;0.80;0.65;;;5.80;99.90;;;;;;5088285;28;20225;-70
2023/11/03 04:12:08;;;;;;;0.40;0.40;;;5.80;99.90;;;;;;5080271;28;20579;-70
2023/11/03 04:14:35;;;;;;;3.28;0.98;;;5.80;99.90;;;;;;5088118;28;20203;-70
2023/11/03 04:17:03;;;;;;;0.40;0.38;;;5.80;99.90;;;;;;5096237;28;20199;-70
2023/11/03 04:19:30;;;;;;;0.43;0.43;;;5.70;99.90;;;;;;5088144;28;20222;-70
2023/11/03 04:21:57;;;;;;;1.85;0.90;;;5.60;99.90;;;;;;5088602;28;20263;-70
2023/11/03 04:24:25;;;;;;;1.95;1.20;;;5.60;99.90;;;;;;5091308;28;20366;-70
2023/11/03 04:26:52;;;;;;;1.75;0.75;;;5.70;99.90;;;;;;5088236;28;20195;-70
2023/11/03 04:29:18;;;;;;;4.43;1.10;;;5.80;99.90;;;;;;5086878;28;20223;-70
2023/11/03 04:31:45;;;;;;;1.40;1.30;;;5.80;99.90;;;;;;5089486;28;20196;-70
2023/11/03 04:34:12;;;;;;;0.65;0.40;;;5.90;99.90;;;;;;5094669;28;20193;-70
2023/11/03 04:36:40;;;;;;;1.20;1.10;;;5.90;99.90;;;;;;5087974;28;20290;-70
2023/11/03 04:39:06;;;;;;;2.25;1.02;;;5.90;99.90;;;;;;5093907;28;20190;-70
2023/11/03 04:41:34;;;;;;;1.10;0.98;;;6.00;99.90;;;;;;5094858;28;20200;-69
2023/11/03 04:44:01;;;;;;;1.08;0.75;;;6.00;99.90;;;;;;5091369;28;20199;-69
2023/11/03 04:46:28;;;;;;;6.57;1.20;;;6.00;99.90;;;;;;5089335;28;20197;-70
2023/11/03 04:48:57;;;;;;;1.02;0.80;;;6.10;99.90;;;;;;5093849;28;20194;-70
2023/11/03 04:51:25;;;;;;;0.90;0.90;;;6.10;99.90;;;;;;5087568;28;20284;-70
2023/11/03 04:53:52;;;;;;;0.70;0.60;;;6.10;99.90;;;;;;5087737;28;20309;-69
2023/11/03 04:56:19;;;;;;;0.65;0.57;;;6.20;99.90;;;;;;5087466;28;20195;-70
2023/11/03 04:58:48;;;;;;;0.57;0.57;;;6.30;99.90;;;;;;5092015;28;20238;-70
2023/11/03 05:01:15;;;;;;;2.42;0.90;;;6.30;99.90;;;;;;5088445;28;20561;-69
2023/11/03 05:03:41;;;;;;;10.38;0.90;;;6.30;99.90;;;;;;5087275;28;20207;-70
2023/11/03 05:06:09;;;;;;;0.55;0.55;;;6.20;99.90;;;;;;5087521;28;20191;-70
2023/11/03 05:08:36;;;;;;;0.77;0.77;;;6.40;99.90;;;;;;5088541;28;20691;-70
2023/11/03 05:11:03;;;;;;;0.80;0.75;;;6.40;99.90;;;;;;5087089;28;20718;-70
2023/11/03 05:13:30;;;;;;;2.05;0.98;;;6.40;99.90;;;;;;5086918;28;20743;-70
2023/11/03 05:15:58;;;;;;;1.52;0.77;;;6.30;99.90;;;;;;5089124;28;20202;-70
2023/11/03 05:18:26;;;;;;;0.98;0.70;;;6.40;99.90;;;;;;5086811;28;20237;-69
2023/11/03 05:20:53;;;;;;;1.02;0.73;;;6.40;99.90;;;;;;5086054;28;20223;-69
2023/11/03 05:23:20;;;;;;;0.82;0.60;;;6.40;99.90;;;;;;5087124;28;20559;-71
2023/11/03 05:25:47;;;;;;;1.85;1.02;;;6.40;99.90;;;;;;5097688;28;20191;-70
2023/11/03 05:28:14;;;;;;;1.15;1.02;;;6.50;99.90;;;;;;5087462;28;20218;-70
2023/11/03 05:30:40;;;;;;;1.20;0.80;;;6.60;99.90;;;;;;5099588;28;20596;-70
2023/11/03 05:33:09;;;;;;;1.35;0.77;;;6.70;99.90;;;;;;5090850;28;20199;-70
2023/11/03 05:35:36;;;;;;;0.95;0.73;;;6.60;99.90;;;;;;5088748;28;20291;-71
2023/11/03 05:38:04;;;;;;;1.30;0.75;;;6.60;99.90;;;;;;5088107;28;20191;-71
2023/11/03 05:40:31;;;;;;;0.60;0.60;;;6.50;99.90;;;;;;5087106;28;20716;-70
2023/11/03 05:42:58;;;;;;;1.65;0.60;;;6.60;99.90;;;;;;5085951;28;20199;-71
2023/11/03 05:45:25;;;;;;;0.60;0.60;;;6.60;99.90;;;;;;5087906;28;20840;-71
2023/11/03 05:47:51;;;;;;;0.80;0.80;;;6.70;99.90;;;;;;5091975;28;20282;-70
2023/11/03 05:50:20;;;;;;;2.28;1.10;;;6.70;99.90;;;;;;5086313;28;20568;-70
2023/11/03 05:52:46;;;;;;;4.75;0.65;;;6.70;99.90;;;;;;5088629;28;20305;-70
2023/11/03 05:55:13;;;;;;;1.13;0.70;;;6.70;99.90;;;;;;5089094;28;20203;-71
2023/11/03 05:57:40;;;;;;;0.82;0.82;;;6.60;99.90;;;;;;5089799;28;20682;-70
2023/11/03 06:00:09;;;;;;;0.60;0.60;;;6.70;99.90;;;;;;5086447;28;20199;-70
2023/11/03 06:02:37;;;;;;;0.60;0.60;;;6.70;99.90;;;;;;5086307;28;20199;-70
2023/11/03 06:05:05;;;;;;;1.63;1.17;;;6.70;99.90;;;;;;5088688;28;20191;-70
2023/11/03 06:07:33;;;;;;;2.17;1.00;;;6.60;99.90;;;;;;5090660;28;20190;-71
2023/11/03 06:10:00;;;;;;;1.08;0.60;;;6.60;99.90;;;;;;5086769;28;20219;-72
2023/11/03 06:12:27;;;;;;;1.30;0.70;;;6.60;99.90;;;;;;5086605;28;20199;-71
2023/11/03 06:14:54;;;;;;;1.13;1.13;;;6.60;99.90;;;;;;5086101;28;20194;-72
2023/11/03 06:17:21;;;;;;;0.85;0.85;;;6.60;99.90;;;;;;5092215;28;20199;-73
2023/11/03 06:19:47;;;;;;;1.15;1.00;;;6.60;99.90;;;;;;5087879;28;20252;-72
2023/11/03 06:22:14;;;;;;;0.98;0.98;;;6.70;99.90;;;;;;5092474;28;20208;-71
2023/11/03 06:24:42;;;;;;;0.93;0.82;;;6.70;99.90;;;;;;5086447;28;20202;-71
2023/11/03 06:27:09;;;;;;;0.88;0.60;;;6.70;99.90;;;;;;5080079;28;20191;-72
2023/11/03 06:29:36;;;;;;;1.00;0.80;;;6.70;99.90;;;;;;5079170;28;20219;-72
2023/11/03 06:32:03;;;;;;;0.50;0.50;;;6.70;99.90;;;;;;5085799;28;20237;-72
2023/11/03 06:34:30;;;;;;;2.20;1.10;;;6.70;99.90;;;;;;5077422;28;20586;-71
2023/11/03 06:36:56;;;;;;;1.20;1.00;;;6.80;99.90;;;;;;5089357;28;20230;-72
2023/11/03 06:39:24;;;;;;;0.73;0.50;;;6.70;99.90;;;;;;5085554;28;20728;-71
2023/11/03 06:41:52;;;;;;;6.53;1.05;;;6.70;99.90;;;;;;5094453;28;20613;-72
2023/11/03 06:44:18;;;;;;;1.65;0.82;;;6.60;99.90;;;;;;5085810;28;20549;-72
2023/11/03 06:46:45;;;;;;;1.05;0.60;;;6.80;99.90;;;;;;5085565;28;20640;-72
2023/11/03 06:49:12;;;;;;;0.57;0.57;;;6.80;99.90;;;;;;5085903;28;20198;-72
2023/11/03 06:51:42;;;;;;;1.05;1.02;;;6.80;99.90;;;;;;5089295;28;21029;-72
2023/11/03 06:54:09;;;;;;;0.80;0.60;;;6.70;99.90;;;;;;5090065;28;20218;-72
2023/11/03 06:56:36;;;;;;;1.20;0.90;;;6.80;99.90;;;;;;5093419;28;20243;-71
2023/11/03 06:59:06;;;;;;;0.90;0.77;;;6.80;99.90;;;;;;5079506;28;20216;-72
2023/11/03 07:01:34;;;;;;;0.98;0.70;;;6.80;99.90;;;;;;5088563;28;20625;-72
2023/11/03 07:04:01;;;;;;;2.17;1.10;;;6.70;99.90;;;;;;5086611;28;20202;-72
2023/11/03 07:06:28;;;;;;;1.10;0.85;;;6.80;99.90;;;;;;5088851;28;20782;-72
2023/11/03 07:08:55;;;;;;;3.13;0.60;;;6.80;99.90;;;;;;5102214;28;20203;-72
2023/11/03 07:11:24;;;;;;;5.90;1.20;;;6.70;99.90;;;;;;5088749;28;21631;-72
2023/11/03 07:13:51;;;;;;;0.70;0.70;;;6.70;99.90;;;;;;5098992;28;20628;-72
2023/11/03 07:16:19;;;;;;;0.80;0.65;;;6.70;99.90;;;;;;5087787;28;20651;-72
2023/11/03 07:18:46;;;;;;;3.30;1.08;;;6.70;99.90;;;;;;5079958;28;20187;-72
2023/11/03 07:21:12;;;;;;;0.82;0.80;;;6.80;99.90;;;;;;5090438;28;20334;-72
2023/11/03 07:23:40;;;;;;;1.53;0.70;;;6.80;99.90;;;;;;5090008;28;20268;-72
2023/11/03 07:26:06;;;;;;;1.13;0.60;;;6.70;99.90;;;;;;5087500;28;20621;-71
2023/11/03 07:28:33;;;;;;;1.50;0.83;;;6.70;99.90;;;;;;5089695;28;20617;-71
2023/11/03 07:31:03;;;;;;;0.63;0.40;;;6.80;99.90;;;;;;5092351;28;20673;-71
2023/11/03 07:33:31;;;;;;;1.48;1.23;;;6.80;99.90;;;;;;5085251;28;20724;-71
2023/11/03 07:35:59;;;;;;;1.50;0.83;;;6.80;99.90;;;;;;5088524;28;20199;-71
2023/11/03 07:38:25;;;;;;;1.03;0.60;;;6.80;99.90;;;;;;5090823;28;20633;-71
2023/11/03 07:40:52;;;;;;;1.03;0.93;;;6.80;99.90;;;;;;5089502;28;21217;-71
2023/11/03 07:43:19;;;;;;;0.80;0.80;;;6.90;99.90;;;;;;5094443;28;20936;-71
2023/11/03 07:45:46;;;;;;;0.80;0.80;;;7.00;99.90;;;;;;5089789;28;20621;-71
2023/11/03 07:48:13;;;;;;;4.07;1.70;;;6.90;99.90;;;;;;5094562;28;20635;-71
2023/11/03 07:50:41;;;;;;;1.00;0.90;;;7.00;99.90;;;;;;5094316;28;20665;-71
2023/11/03 07:53:08;;;;;;;1.48;1.13;;;7.00;99.90;;;;;;5094866;28;20686;-71
2023/11/03 07:55:36;;;;;;;0.97;0.77;;;7.00;99.90;;;;;;5099180;28;20199;-71
2023/11/03 07:58:05;;;;;;;3.65;1.58;;;7.00;99.90;;;;;;5089423;28;20636;-71
2023/11/03 08:00:32;;;;;;;3.93;1.10;;;7.00;99.90;;;;;;5087753;28;20230;-71
2023/11/03 08:02:59;;;;;;;0.83;0.73;;;7.00;99.90;;;;;;5087408;28;20995;-71
2023/11/03 08:05:26;;;;;;;5.97;1.80;;;7.10;99.90;;;;;;5088685;28;20656;-71
2023/11/03 08:07:54;;;;;;;1.03;0.70;;;7.10;99.90;;;;;;5085534;28;20625;-71
2023/11/03 08:10:21;;;;;;;1.13;0.80;;;7.10;99.90;;;;;;5081600;28;20632;-71
2023/11/03 08:12:48;;;;;;;0.67;0.63;;;7.20;99.90;;;;;;5087175;28;20671;-71
2023/11/03 08:15:15;;;;;;;2.07;1.37;;;7.20;99.90;;;;;;5087395;28;20647;-71
2023/11/03 08:17:43;;;;;;;2.33;1.87;;;7.30;99.90;;;;;;5087672;28;20628;-71
2023/11/03 08:20:11;;;;;;;1.67;1.07;;;7.30;99.90;;;;;;5089293;28;20647;-71
2023/11/03 08:22:39;;;;;;;0.97;0.73;;;7.50;99.90;;;;;;5088048;28;20637;-71
2023/11/03 08:25:08;;;;;;;2.33;1.20;;;7.60;99.90;;;;;;5086786;28;21201;-71
2023/11/03 08:27:35;;;;;;;1.87;0.83;;;7.60;99.90;;;;;;5086681;28;20694;-71
2023/11/03 08:30:03;;;;;;;3.77;1.00;;;7.40;99.90;;;;;;5089862;28;21120;-72
2023/11/03 08:32:30;;;;;;;3.10;2.00;;;7.40;99.90;;;;;;5093145;28;20663;-71
2023/11/03 08:34:57;;;;;;;1.33;0.90;;;7.40;99.90;;;;;;5090456;28;20621;-71
2023/11/03 08:37:24;;;;;;;0.40;0.40;;;7.40;99.90;;;;;;5091511;28;20631;-71
2023/11/03 08:39:51;;;;;;;0.50;0.50;;;7.40;99.90;;;;;;5091322;28;20616;-72
2023/11/03 08:42:20;;;;;;;0.50;0.50;;;7.50;99.90;;;;;;5095796;28;20927;-71
2023/11/03 08:44:47;;;;;;;2.67;1.23;;;7.40;99.90;;;;;;5087457;28;20654;-71
2023/11/03 08:47:15;;;;;;;3.80;0.80;;;7.50;99.90;;;;;;5086934;28;21271;-71
2023/11/03 08:49:42;;;;;;;1.63;0.80;;;7.50;99.90;;;;;;5090968;28;20971;-71
2023/11/03 08:52:10;;;;;;;3.37;1.13;;;7.50;99.90;;;;;;5091646;28;21221;-71
2023/11/03 08:54:37;;;;;;;0.73;0.73;;;7.60;99.90;;;;;;5094730;28;20952;-71
2023/11/03 08:57:05;;;;;;;0.93;0.60;;;7.60;99.90;;;;;;5092590;28;20708;-72
2023/11/03 08:59:33;;;;;;;1.20;1.07;;;7.80;99.90;;;;;;5097005;28;21264;-72
2023/11/03 09:02:00;;;;;;;2.57;0.63;;;7.90;99.90;;;;;;5091616;28;20725;-71
2023/11/03 09:04:27;;;;;;;1.00;0.87;;;8.00;99.90;;;;;;5100762;28;20623;-71
2023/11/03 09:06:54;;;;;;;1.50;0.80;;;8.00;99.90;;;;;;5085873;28;20724;-72
2023/11/03 09:09:21;;;;;;;1.50;1.17;;;8.10;99.90;;;;;;5080576;28;21027;-72
2023/11/03 09:11:48;;;;;;;1.67;0.70;;;8.10;99.90;;;;;;5081426;28;20675;-71
2023/11/03 09:14:15;;;;;;;0.80;0.80;;;8.10;99.90;;;;;;5088466;28;20725;-71
2023/11/03 09:16:43;;;;;;;1.33;0.70;;;8.30;99.90;;;;;;5093400;28;20643;-71
2023/11/03 09:19:10;;;;;;;0.63;0.50;;;8.20;99.90;;;;;;5091377;27;20631;-71
2023/11/03 09:21:38;;;;;;;0.57;0.57;;;8.20;99.90;;;;;;5086783;28;20737;-71
2023/11/03 09:24:06;;;;;;;0.70;0.60;;;8.30;99.90;;;;;;5086492;28;20625;-71
2023/11/03 09:26:33;;;;;;;0.80;0.80;;;8.20;99.90;;;;;;5082988;28;20630;-71
2023/11/03 09:29:00;;;;;;;1.17;0.70;;;8.20;99.90;;;;;;5089106;28;20625;-71
2023/11/03 09:31:28;;;;;;;0.73;0.57;;;8.20;99.90;;;;;;5089357;28;20704;-71
2023/11/03 09:33:56;;;;;;;1.23;0.80;;;8.10;99.90;;;;;;5087388;28;20629;-71
2023/11/03 09:36:23;;;;;;;0.73;0.47;;;8.10;99.90;;;;;;5085466;28;20688;-72
2023/11/03 09:38:50;;;;;;;0.87;0.80;;;8.30;99.90;;;;;;5072304;28;20622;-72
2023/11/03 09:41:19;;;;;;;1.07;0.80;;;8.00;99.90;;;;;;5087751;28;20613;-72
2023/11/03 09:43:47;;;;;;;2.00;0.73;;;8.10;99.90;;;;;;5089612;28;20629;-71
2023/11/03 09:46:15;;;;;;;2.53;0.50;;;8.10;99.90;;;;;;5085984;28;20629;-71
2023/11/03 09:48:42;;;;;;;0.80;0.80;;;8.20;99.90;;;;;;5087157;28;20639;-71
2023/11/03 09:51:11;;;;;;;2.73;0.97;;;8.20;99.90;;;;;;5093237;28;20667;-71
2023/11/03 09:53:43;;;;;;;0.60;0.60;;;8.30;99.90;;;;;;5087311;28;20640;-71
2023/11/03 09:56:10;;;;;;;0.90;0.90;;;8.50;99.90;;;;;;5085867;28;20728;-71
2023/11/03 09:58:37;;;;;;;1.37;1.27;;;8.50;99.90;;;;;;5085631;28;20621;-71
2023/11/03 10:01:08;;;;;;;1.80;0.80;;;8.60;99.90;;;;;;5085168;28;20621;-71
2023/11/03 10:03:37;;;;;;;1.17;0.70;;;8.70;99.90;;;;;;5091446;28;20628;-71
2023/11/03 10:06:05;;;;;;;1.00;0.60;;;8.70;99.90;;;;;;5097078;28;20706;-71
2023/11/03 10:08:33;;;;;;;1.40;0.67;;;8.60;99.90;;;;;;5085305;28;20617;-72
2023/11/03 10:11:00;;;;;;;1.00;0.90;;;8.60;99.90;;;;;;5086429;28;20638;-72
2023/11/03 10:13:27;;;;;;;0.87;0.60;;;8.70;99.90;;;;;;5089805;28;21061;-71
2023/11/03 10:15:56;;;;;;;1.37;1.00;;;8.60;99.90;;;;;;5089996;28;20676;-72
2023/11/03 10:18:24;;;;;;;1.30;0.90;;;8.70;99.90;;;;;;5081680;28;20721;-72
2023/11/03 10:20:55;;;;;;;1.57;1.00;;;8.70;99.90;;;;;;5101288;28;20640;-72
2023/11/03 10:23:23;;;;;;;1.53;0.83;;;8.80;99.90;;;;;;5083140;28;21018;-72
2023/11/03 10:25:52;;;;;;;0.67;0.67;;;8.80;99.90;;;;;;5103883;28;20628;-72
2023/11/03 10:28:19;;;;;;;1.03;0.90;;;8.90;99.90;;;;;;5085459;28;20984;-72
2023/11/03 10:30:55;;;;;;;2.10;1.17;;;8.90;99.90;;;;;;5087356;28;20620;-71
2023/11/03 10:33:24;;;;;;;0.57;0.53;;;8.80;99.90;;;;;;5089260;28;20664;-71
2023/11/03 10:35:51;;;;;;;1.43;0.80;;;8.80;99.90;;;;;;5086837;28;20644;-72
2023/11/03 10:38:19;;;;;;;1.13;0.60;;;9.00;99.90;;;;;;5087544;28;21001;-72
2023/11/03 10:40:46;;;;;;;0.67;0.67;;;9.00;99.90;;;;;;5086996;28;20628;-71
2023/11/03 10:43:15;;;;;;;0.43;0.43;;;9.00;99.90;;;;;;5089531;28;20633;-72
2023/11/03 10:45:53;;;;;;;1.30;0.70;;;8.80;99.90;;;;;;5085216;28;21220;-71
2023/11/03 10:48:26;;;;;;;0.83;0.40;;;8.90;99.90;;;;;;5084716;28;20728;-71
2023/11/03 10:51:00;;;;;;;0.53;0.40;;;8.90;99.90;;;;;;5085335;28;21182;-71
2023/11/03 10:53:37;;;;;;;0.57;0.57;;;9.00;99.90;;;;;;5086202;28;20660;-71
2023/11/03 10:56:06;;;;;;;1.60;0.70;;;9.10;99.90;;;;;;5094826;28;20641;-71
2023/11/03 10:58:35;;;;;;;0.50;0.50;;;9.10;99.90;;;;;;5091100;28;20772;-72
2023/11/03 11:01:06;;;;;;;0.40;0.40;;;9.20;99.90;;;;;;5091089;28;20658;-71
2023/11/03 11:03:42;;;;;;;0.57;0.57;;;9.20;99.90;;;;;;5097935;28;21552;-71
2023/11/03 11:06:17;;;;;;;0.60;0.50;;;9.10;99.90;;;;;;5095140;28;20640;-71
2023/11/03 11:08:46;;;;;;;0.50;0.40;;;9.00;99.90;;;;;;5084376;28;20637;-71
2023/11/03 11:11:13;;;;;;;0.97;0.50;;;9.10;99.90;;;;;;5085425;28;20626;-71
2023/11/03 11:13:42;;;;;;;0.70;0.70;;;9.10;99.90;;;;;;5085467;28;21071;-71
2023/11/03 11:16:11;;;;;;;0.50;0.50;;;9.20;99.90;;;;;;5082210;28;20629;-71
2023/11/03 11:18:51;;;;;;;0.97;0.57;;;9.30;99.80;;;;;;5089775;28;20950;-71
2023/11/03 11:21:27;;;;;;;0.50;0.50;;;9.30;99.90;;;;;;5102818;28;20624;-71
2023/11/03 11:23:56;;;;;;;0.70;0.53;;;9.40;99.90;;;;;;5103566;28;20628;-71
2023/11/03 11:26:26;;;;;;;0.60;0.37;;;9.30;99.20;;;;;;5077295;28;20713;-71
2023/11/03 11:28:54;;;;;;;0.83;0.70;;;9.40;99.90;;;;;;5084801;28;20617;-71
2023/11/03 11:31:40;;;;;;;0.50;0.47;;;9.50;99.90;;;;;;5088976;28;20613;-72
2023/11/03 11:34:10;;;;;;;0.60;0.40;;;9.50;99.70;;;;;;5087987;28;20632;-72
2023/11/03 11:36:39;;;;;;;0.77;0.50;;;9.50;99.20;;;;;;5086570;28;20721;-72
2023/11/03 11:39:13;;;;;;;1.50;0.37;;;9.50;99.20;;;;;;5088324;28;20679;-72
2023/11/03 11:41:47;;;;;;;0.67;0.60;;;9.50;99.80;;;;;;5086534;28;20632;-72
2023/11/03 11:44:19;;;;;;;3.30;0.90;;;9.40;99.00;;;;;;5095827;28;20640;-72
2023/11/03 11:46:52;;;;;;;1.90;1.07;;;9.40;99.70;;;;;;5089364;28;20633;-72
2023/11/03 11:49:22;;;;;;;0.80;0.50;;;9.30;98.50;;;;;;5092299;28;20624;-71
2023/11/03 11:51:50;;;;;;;1.17;0.73;;;9.30;98.30;;;;;;5088307;28;21057;-71
2023/11/03 11:54:18;;;;;;;0.90;0.70;;;9.40;99.00;;;;;;5088316;28;20621;-70
2023/11/03 11:56:46;;;;;;;6.67;0.77;;;9.30;98.00;;;;;;5089534;28;20640;-71
2023/11/03 11:59:17;;;;;;;0.80;0.50;;;9.40;98.20;;;;;;5093029;28;20624;-72
2023/11/03 12:01:45;;;;;;;0.40;0.30;;;9.30;97.60;;;;;;5084208;28;20621;-72
2023/11/03 12:04:12;;;;;;;0.60;0.40;;;9.30;97.80;;;;;;5087246;28;21189;-72
2023/11/03 12:06:40;;;;;;;0.30;0.30;;;9.40;98.10;;;;;;5085713;28;20609;-72
2023/11/03 12:09:07;;;;;;;0.37;0.30;;;9.50;98.10;;;;;;5092478;28;20688;-71
2023/11/03 12:11:34;;;;;;;0.30;0.30;;;9.50;97.90;;;;;;5096341;28;20626;-71
2023/11/03 12:14:01;;;;;;;0.40;0.30;;;9.50;98.20;;;;;;5096721;28;20709;-72
2023/11/03 12:16:29;;;;;;;0.57;0.57;;;9.50;97.40;;;;;;5093678;28;20728;-71
2023/11/03 12:18:56;;;;;;;1.00;0.50;;;9.50;97.50;;;;;;5091580;28;20640;-71
2023/11/03 12:21:24;;;;;;;0.50;0.40;;;9.40;97.30;;;;;;5100163;28;20622;-72
2023/11/03 12:23:51;;;;;;;0.50;0.30;;;9.40;97.40;;;;;;5093224;28;20624;-71
2023/11/03 12:26:18;;;;;;;0.30;0.20;;;9.50;97.30;;;;;;5095403;28;20728;-71
2023/11/03 12:28:45;;;;;;;0.30;0.30;;;9.40;97.70;;;;;;5088495;28;21070;-72
2023/11/03 12:31:13;;;;;;;0.30;0.20;;;9.40;97.20;;;;;;5091075;28;20634;-72
2023/11/03 12:33:41;;;;;;;0.67;0.50;;;9.40;97.60;;;;;;5088787;28;20700;-72
2023/11/03 12:36:09;;;;;;;0.30;0.30;;;9.50;97.60;;;;;;5093108;28;20643;-72
2023/11/03 12:38:43;;;;;;;0.40;0.37;;;9.50;97.20;;;;;;5093106;28;20727;-71
2023/11/03 12:41:14;;;;;;;0.83;0.83;;;9.50;96.90;;;;;;5086257;28;20621;-73
2023/11/03 12:43:42;;;;;;;0.33;0.33;;;9.50;97.20;;;;;;5091690;28;20686;-71
2023/11/03 12:46:10;;;;;;;1.80;0.50;;;9.50;97.80;;;;;;5092161;28;20637;-72
2023/11/03 12:48:39;;;;;;;0.70;0.40;;;9.60;97.90;;;;;;5092424;28;20686;-72
2023/11/03 12:51:08;;;;;;;0.30;0.20;;;9.50;97.00;;;;;;5087133;28;21200;-72
2023/11/03 12:53:45;;;;;;;1.10;0.63;;;9.40;96.40;;;;;;5090325;28;21239;-72
2023/11/03 12:56:15;;;;;;;0.53;0.40;;;9.30;96.50;;;;;;5095361;28;20629;-72
2023/11/03 12:58:44;;;;;;;1.00;0.90;;;9.30;97.00;;;;;;5093891;28;21235;-71
2023/11/03 13:01:11;;;;;;;0.60;0.50;;;9.30;96.70;;;;;;5090538;28;20637;-72